Time;durP1;ratioP1;P1;durP2;ratioP2;P2;SDS_P1;SDS_P2;PMS_P1;PMS_P2;Temp;Humidity;BMP_temperature;BMP_pressure;BME280_temperature;BME280_humidity;BME280_pressure;Samples;Min_cycle;Max_cycle;Signal;HPM_P1;HPM_P2
2023/01/22 00:01:00;;;;;;;16.53;9.20;;;;;;;;;;5034102;28;20068;-85
2023/01/22 00:03:44;;;;;;;19.40;9.27;;;;;;;;;;5033461;28;20107;-85
2023/01/22 00:06:30;;;;;;;15.33;8.70;;;;;;;;;;5033205;28;20044;-85
2023/01/22 00:09:15;;;;;;;15.60;8.80;;;;;;;;;;5032906;28;20540;-85
2023/01/22 00:11:59;;;;;;;14.10;8.37;;;;;;;;;;5032650;28;20044;-85
2023/01/22 00:14:44;;;;;;;13.40;8.53;;;;;;;;;;5033317;28;20134;-86
2023/01/22 00:17:29;;;;;;;18.67;9.60;;;;;;;;;;5033793;28;20036;-85
2023/01/22 00:20:14;;;;;;;18.63;8.90;;;;;;;;;;5033720;28;20087;-85
2023/01/22 00:22:58;;;;;;;17.33;9.70;;;;;;;;;;5032193;28;20049;-85
2023/01/22 00:25:43;;;;;;;22.37;10.33;;;;;;;;;;5043796;28;20126;-86
2023/01/22 00:28:28;;;;;;;18.07;9.40;;;;;;;;;;5034287;28;20075;-86
2023/01/22 00:31:14;;;;;;;20.33;9.57;;;-0.30;99.90;;;;;;5046482;28;20051;-85
2023/01/22 00:33:58;;;;;;;19.63;9.97;;;;;;;;;;5018228;28;20516;-85
2023/01/22 00:36:43;;;;;;;21.53;10.33;;;;;;;;;;5020632;28;20508;-86
2023/01/22 00:39:27;;;;;;;21.83;10.03;;;;;;;;;;5018833;28;20040;-85
2023/01/22 00:42:12;;;;;;;18.10;10.77;;;;;;;;;;5037345;28;20119;-85
2023/01/22 00:44:58;;;;;;;20.50;11.10;;;;;;;;;;5037664;28;20120;-85
2023/01/22 00:47:43;;;;;;;20.63;11.27;;;;;;;;;;5053367;28;20087;-85
2023/01/22 00:50:28;;;;;;;27.93;13.13;;;;;;;;;;5038114;28;20040;-85
2023/01/22 00:53:12;;;;;;;21.70;11.87;;;;;;;;;;5037645;28;20118;-85
2023/01/22 00:55:59;;;;;;;25.63;13.53;;;-0.20;99.90;;;;;;5052669;28;20129;-86
2023/01/22 00:58:44;;;;;;;23.07;12.83;;;;;;;;;;5037856;28;20044;-85
2023/01/22 01:01:28;;;;;;;30.23;12.87;;;;;;;;;;5052980;28;20032;-85
2023/01/22 01:04:13;;;;;;;23.63;12.60;;;;;;;;;;5037307;28;20043;-85
2023/01/22 01:06:58;;;;;;;21.73;12.87;;;;;;;;;;5037399;28;20043;-86
2023/01/22 01:09:42;;;;;;;23.03;13.50;;;;;;;;;;5051377;28;20096;-85
2023/01/22 01:12:27;;;;;;;23.13;12.07;;;;;;;;;;5037567;28;20111;-85
2023/01/22 01:15:11;;;;;;;25.97;12.70;;;;;;;;;;5037305;28;20238;-86
2023/01/22 01:17:55;;;;;;;26.33;13.80;;;;;;;;;;5052335;28;20393;-86
2023/01/22 01:20:40;;;;;;;27.47;12.73;;;;;;;;;;5052724;28;20116;-85
2023/01/22 01:23:26;;;;;;;24.47;12.53;;;;;;;;;;5037510;28;20040;-85
2023/01/22 01:26:12;;;;;;;22.70;12.17;;;-0.50;99.90;;;;;;5036303;28;20397;-85
2023/01/22 01:28:57;;;;;;;24.73;13.10;;;;;;;;;;5037211;28;20064;-86
2023/01/22 01:31:41;;;;;;;24.43;11.53;;;;;;;;;;5037656;28;20047;-85
2023/01/22 01:34:26;;;;;;;23.17;12.47;;;;;;;;;;5052375;28;20422;-85
2023/01/22 01:37:10;;;;;;;27.73;14.00;;;;;;;;;;5037053;28;20040;-85
2023/01/22 01:39:55;;;;;;;22.83;11.80;;;;;;;;;;5036940;28;20032;-89
2023/01/22 01:42:45;;;;;;;22.07;12.03;;;-0.80;99.90;;;;;;5052450;28;20082;-85
2023/01/22 01:45:31;;;;;;;23.77;12.17;;;;;;;;;;5037505;28;20040;-85
2023/01/22 01:48:37;;;;;;;38.53;15.03;;;-0.90;99.90;;;;;;5036693;28;20518;-85
2023/01/22 01:51:33;;;;;;;24.47;13.87;;;;;;;;;;5037477;28;20048;-85
2023/01/22 01:54:18;;;;;;;25.07;12.87;;;;;;;;;;5036793;28;20084;-85
2023/01/22 01:57:14;;;;;;;25.77;13.10;;;-1.00;99.90;;;;;;5036763;28;20397;-85
2023/01/22 02:00:01;;;;;;;24.43;12.13;;;-1.10;99.90;;;;;;5036754;28;20036;-87
2023/01/22 02:02:46;;;;;;;23.63;12.57;;;;;;;;;;5037257;28;20389;-85
2023/01/22 02:05:36;;;;;;;23.47;12.60;;;-1.10;99.90;;;;;;5037082;28;20047;-85
2023/01/22 02:08:20;;;;;;;27.67;11.97;;;;;;;;;;5036473;28;20032;-85
2023/01/22 02:11:05;;;;;;;27.37;12.23;;;;;;;;;;5051787;28;20044;-85
2023/01/22 02:13:58;;;;;;;24.90;11.80;;;-1.10;99.90;;;;;;5052146;28;20036;-85
2023/01/22 02:16:43;;;;;;;23.70;12.67;;;;;;;;;;5036935;28;20123;-85
2023/01/22 02:19:28;;;;;;;30.77;13.60;;;;;;;;;;5036991;28;20526;-85
2023/01/22 02:22:24;;;;;;;24.73;12.30;;;-1.00;99.90;;;;;;5036439;28;20464;-85
2023/01/22 02:25:09;;;;;;;27.43;13.83;;;;;;;;;;5036331;28;20460;-85
2023/01/22 02:27:53;;;;;;;23.57;12.73;;;;;;;;;;5037012;28;20158;-85
2023/01/22 02:30:38;;;;;;;25.70;13.70;;;;;;;;;;5051837;28;20056;-85
2023/01/22 02:33:22;;;;;;;31.63;13.30;;;;;;;;;;5016791;28;20116;-85
2023/01/22 02:36:07;;;;;;;27.17;14.40;;;;;;;;;;5021492;28;20084;-85
2023/01/22 02:38:51;;;;;;;27.83;13.37;;;;;;;;;;5039639;28;20046;-85
2023/01/22 02:41:36;;;;;;;28.73;13.60;;;;;;;;;;5020647;28;20045;-85
2023/01/22 02:44:21;;;;;;;25.43;13.47;;;;;;;;;;5036213;28;20060;-84
2023/01/22 02:47:05;;;;;;;33.07;14.40;;;;;;;;;;5028753;28;20036;-89
2023/01/22 02:49:50;;;;;;;30.23;13.47;;;;;;;;;;5040014;28;20086;-85
2023/01/22 02:52:34;;;;;;;23.10;12.90;;;;;;;;;;5020602;28;20041;-85
2023/01/22 02:55:19;;;;;;;26.93;13.37;;;;;;;;;;5039488;28;20047;-85
2023/01/22 02:58:04;;;;;;;26.40;12.90;;;;;;;;;;5039940;28;20064;-85
2023/01/22 03:00:49;;;;;;;24.97;12.53;;;;;;;;;;5040094;28;20107;-85
2023/01/22 03:03:33;;;;;;;21.70;11.90;;;;;;;;;;5019937;28;20044;-85
2023/01/22 03:06:21;;;;;;;23.00;10.70;;;;;;;;;;5020842;28;20044;-86
2023/01/22 03:09:06;;;;;;;21.93;10.50;;;;;;;;;;5039857;28;20087;-85
2023/01/22 03:11:50;;;;;;;20.37;11.47;;;;;;;;;;5054859;28;20059;-85
2023/01/22 03:23:48;;;;;;;18.53;8.97;;;0.10;99.90;;;;;;5049880;28;20086;-85
2023/01/22 03:26:32;;;;;;;15.90;8.30;;;;;;;;;;5054673;28;20456;-85
2023/01/22 03:29:17;;;;;;;19.83;8.73;;;;;;;;;;5054215;28;20036;-85
2023/01/22 03:32:02;;;;;;;17.10;8.37;;;;;;;;;;5039852;28;20040;-85
2023/01/22 03:34:46;;;;;;;12.70;8.13;;;;;;;;;;5039821;28;20108;-85
2023/01/22 03:37:31;;;;;;;14.10;8.13;;;;;;;;;;5025053;28;20041;-86
2023/01/22 03:40:15;;;;;;;14.37;7.63;;;;;;;;;;5028419;28;20072;-86
2023/01/22 03:43:00;;;;;;;15.63;8.87;;;;;;;;;;5034659;28;20099;-85
2023/01/22 03:45:45;;;;;;;12.27;7.17;;;;;;;;;;5048007;28;20072;-85
2023/01/22 03:48:29;;;;;;;12.53;7.07;;;;;;;;;;5025024;28;20040;-85
2023/01/22 03:51:15;;;;;;;13.23;6.60;;;0.50;99.90;;;;;;5036578;28;20040;-91
2023/01/22 03:53:59;;;;;;;12.47;7.17;;;;;;;;;;5019768;28;20052;-86
2023/01/22 03:56:44;;;;;;;10.87;6.03;;;;;;;;;;5054178;28;20044;-86
2023/01/22 03:59:29;;;;;;;15.27;6.93;;;;;;;;;;5023662;28;20048;-86
2023/01/22 04:02:14;;;;;;;10.93;6.97;;;;;;;;;;5057378;28;20064;-85
2023/01/22 04:04:59;;;;;;;13.33;6.17;;;;;;;;;;5035568;28;20216;-85
2023/01/22 04:07:43;;;;;;;13.77;6.50;;;;;;;;;;5047315;28;20182;-85
2023/01/22 04:10:28;;;;;;;14.70;7.20;;;;;;;;;;5046056;28;20497;-85
2023/01/22 04:13:12;;;;;;;11.27;5.47;;;;;;;;;;5021396;28;20405;-86
2023/01/22 04:15:57;;;;;;;10.90;6.33;;;;;;;;;;5028491;28;20128;-85
2023/01/22 04:18:41;;;;;;;10.50;5.70;;;;;;;;;;5049088;28;20052;-85
2023/01/22 04:21:26;;;;;;;12.03;6.47;;;;;;;;;;5028615;28;20121;-86
2023/01/22 04:24:10;;;;;;;13.87;6.17;;;;;;;;;;5051664;28;20091;-85
2023/01/22 04:26:55;;;;;;;9.07;6.03;;;;;;;;;;5025984;28;20056;-86
2023/01/22 04:29:39;;;;;;;10.33;5.30;;;;;;;;;;5033615;28;20622;-87
2023/01/22 04:32:24;;;;;;;12.17;6.23;;;;;;;;;;5048704;28;20086;-86
2023/01/22 04:35:08;;;;;;;10.33;5.63;;;;;;;;;;5053791;28;20055;-85
2023/01/22 04:37:53;;;;;;;14.37;5.37;;;;;;;;;;5034173;28;20060;-86
2023/01/22 04:40:37;;;;;;;9.57;5.10;;;;;;;;;;5046340;28;20150;-90
2023/01/22 04:43:22;;;;;;;10.37;5.30;;;;;;;;;;5033442;28;20414;-91
2023/01/22 04:46:06;;;;;;;12.10;5.20;;;;;;;;;;5060678;28;20125;-86
2023/01/22 04:48:51;;;;;;;9.53;5.20;;;;;;;;;;5045179;28;20048;-85
2023/01/22 04:51:36;;;;;;;8.60;5.00;;;;;;;;;;5031460;28;20167;-86
2023/01/22 04:54:20;;;;;;;6.50;4.47;;;;;;;;;;5046398;28;20044;-86
2023/01/22 04:57:05;;;;;;;9.03;4.63;;;;;;;;;;5027781;28;20059;-86
2023/01/22 04:59:50;;;;;;;7.17;4.60;;;;;;;;;;5024316;28;20131;-86
2023/01/22 05:02:34;;;;;;;8.87;5.23;;;;;;;;;;5024416;28;20072;-86
2023/01/22 05:05:19;;;;;;;10.70;4.67;;;;;;;;;;5053727;28;20166;-87
2023/01/22 05:08:03;;;;;;;8.77;4.53;;;;;;;;;;5023922;28;20099;-86
2023/01/22 05:10:48;;;;;;;11.80;5.07;;;;;;;;;;5037572;28;20036;-86
2023/01/22 05:13:32;;;;;;;8.60;5.00;;;;;;;;;;5038471;28;20102;-86
2023/01/22 05:16:17;;;;;;;9.07;4.70;;;;;;;;;;5038040;28;20090;-86
2023/01/22 05:19:01;;;;;;;10.07;4.80;;;;;;;;;;5032055;28;20044;-86
2023/01/22 05:21:46;;;;;;;17.27;7.50;;;;;;;;;;5030303;28;20241;-86
2023/01/22 05:24:30;;;;;;;8.27;5.03;;;;;;;;;;5032268;28;20049;-87
2023/01/22 05:27:15;;;;;;;9.37;5.00;;;;;;;;;;5060090;28;20448;-86
2023/01/22 05:30:00;;;;;;;9.63;5.47;;;;;;;;;;5018248;28;20041;-86
2023/01/22 05:32:44;;;;;;;12.07;6.50;;;;;;;;;;5032119;28;20390;-86
2023/01/22 05:35:29;;;;;;;12.30;5.70;;;;;;;;;;5059369;28;20048;-90
2023/01/22 05:38:13;;;;;;;9.83;5.37;;;;;;;;;;5029363;28;20060;-85
2023/01/22 05:40:58;;;;;;;8.03;5.17;;;;;;;;;;5031764;28;20055;-86
2023/01/22 05:43:43;;;;;;;11.90;7.00;;;;;;;;;;5056707;28;20040;-85
2023/01/22 05:46:28;;;;;;;8.77;5.17;;;;;;;;;;5038618;28;20036;-85
2023/01/22 05:49:12;;;;;;;10.43;5.43;;;;;;;;;;5022807;28;20037;-86
2023/01/22 05:51:57;;;;;;;8.17;5.40;;;;;;;;;;5045644;28;20064;-86
2023/01/22 05:54:41;;;;;;;8.33;5.30;;;;;;;;;;5059146;28;20051;-86
2023/01/22 05:57:28;;;;;;;14.40;5.50;;;;;;;;;;5017735;28;20502;-86
2023/01/22 06:00:13;;;;;;;8.93;4.83;;;0.40;99.90;;;;;;5031816;28;20564;-86
2023/01/22 06:02:58;;;;;;;9.70;5.10;;;0.80;99.90;;;;;;5045087;28;20067;-86
2023/01/22 06:05:43;;;;;;;9.83;5.00;;;;;;;;;;5017038;28;20044;-86
2023/01/22 06:08:28;;;;;;;9.80;5.70;;;;;;;;;;5032395;28;20044;-85
2023/01/22 06:11:15;;;;;;;11.30;6.50;;;0.80;99.90;;;;;;5059237;28;20090;-86
2023/01/22 06:13:59;;;;;;;10.97;6.00;;;;;;;;;;5055413;28;20401;-86
2023/01/22 06:16:44;;;;;;;10.63;5.60;;;;;;;;;;5023312;28;20044;-86
2023/01/22 06:19:28;;;;;;;11.70;5.90;;;;;;;;;;5056247;28;20032;-86
2023/01/22 06:22:13;;;;;;;9.73;5.67;;;;;;;;;;5039381;28;20040;-86
2023/01/22 06:24:57;;;;;;;12.43;6.30;;;;;;;;;;5066767;28;20055;-86
2023/01/22 06:27:42;;;;;;;11.20;5.60;;;;;;;;;;5054359;28;20122;-86
2023/01/22 06:30:26;;;;;;;12.43;6.63;;;;;;;;;;5055628;28;20040;-86
2023/01/22 06:33:11;;;;;;;10.17;6.30;;;;;;;;;;5021065;28;20497;-86
2023/01/22 06:35:55;;;;;;;9.97;5.83;;;;;;;;;;5043163;28;20048;-86
2023/01/22 06:38:40;;;;;;;11.77;6.20;;;;;;;;;;5055090;28;20040;-86
2023/01/22 06:41:25;;;;;;;9.43;5.43;;;;;;;;;;5020679;28;20052;-86
2023/01/22 06:44:09;;;;;;;11.37;5.83;;;;;;;;;;5024817;28;20047;-86
2023/01/22 06:46:54;;;;;;;10.60;6.30;;;;;;;;;;5057887;28;20043;-87
2023/01/22 06:49:38;;;;;;;10.67;6.57;;;;;;;;;;5040180;28;20043;-90
2023/01/22 06:52:23;;;;;;;10.03;5.57;;;;;;;;;;5040417;28;20066;-87
2023/01/22 06:55:08;;;;;;;10.10;6.43;;;;;;;;;;5037478;28;20102;-87
2023/01/22 06:57:56;;;;;;;11.20;5.53;;;0.70;99.90;;;;;;5052626;28;20044;-85
2023/01/22 07:00:40;;;;;;;11.60;6.63;;;;;;;;;;5031038;28;20043;-90
2023/01/22 07:03:25;;;;;;;13.70;7.17;;;;;;;;;;5035220;28;20040;-86
2023/01/22 07:06:10;;;;;;;9.80;6.37;;;;;;;;;;5040062;28;20040;-87
2023/01/22 07:08:55;;;;;;;6.90;4.70;;;;;;;;;;5054479;28;20052;-86
2023/01/22 07:11:40;;;;;;;12.27;6.83;;;;;;;;;;5046727;28;20051;-86
2023/01/22 07:14:24;;;;;;;11.97;6.83;;;;;;;;;;5048156;28;20410;-86
2023/01/22 07:17:09;;;;;;;11.80;7.20;;;;;;;;;;5051233;28;20047;-86
2023/01/22 07:19:53;;;;;;;9.80;6.47;;;;;;;;;;5028190;28;20044;-86
2023/01/22 07:22:38;;;;;;;12.07;6.83;;;;;;;;;;5053864;28;20036;-86
2023/01/22 07:25:23;;;;;;;14.03;7.53;;;;;;;;;;5052221;28;20044;-86
2023/01/22 07:28:07;;;;;;;13.87;8.00;;;;;;;;;;5052444;28;20040;-86
2023/01/22 07:30:52;;;;;;;12.57;7.13;;;;;;;;;;5054218;28;20097;-87
2023/01/22 07:33:36;;;;;;;12.00;7.33;;;;;;;;;;5036989;28;20090;-86
2023/01/22 07:36:21;;;;;;;13.20;6.93;;;;;;;;;;5050422;28;20449;-86
2023/01/22 07:39:05;;;;;;;9.97;6.60;;;;;;;;;;5036538;28;20039;-85
2023/01/22 07:41:50;;;;;;;13.40;8.23;;;;;;;;;;5045309;28;20040;-86
2023/01/22 07:44:35;;;;;;;12.73;7.30;;;;;;;;;;5025748;28;20448;-85
2023/01/22 07:47:20;;;;;;;13.03;7.93;;;;;;;;;;5035410;28;20036;-85
2023/01/22 07:50:05;;;;;;;13.93;7.97;;;-0.10;99.90;;;;;;5036049;28;20814;-84
2023/01/22 07:52:49;;;;;;;14.87;8.40;;;;;;;;;;5049782;28;20040;-85
2023/01/22 07:55:34;;;;;;;13.77;8.30;;;;;;;;;;5047642;28;20097;-84
2023/01/22 07:58:18;;;;;;;12.47;7.37;;;;;;;;;;5033164;28;20048;-85
2023/01/22 08:01:06;;;;;;;11.23;7.67;;;;;;;;;;5026896;28;20455;-86
2023/01/22 08:03:51;;;;;;;11.67;7.23;;;;;;;;;;5041653;28;20087;-85
2023/01/22 08:06:35;;;;;;;17.13;8.50;;;;;;;;;;5034802;28;20036;-86
2023/01/22 08:09:24;;;;;;;12.40;7.40;;;;;;;;;;5040711;28;20110;-85
2023/01/22 08:12:09;;;;;;;11.43;7.90;;;;;;;;;;5047560;28;20655;-85
2023/01/22 08:14:53;;;;;;;11.30;7.47;;;;;;;;;;5050855;28;20040;-85
2023/01/22 08:17:38;;;;;;;11.37;7.67;;;;;;;;;;5051942;28;20413;-85
2023/01/22 08:20:23;;;;;;;17.47;7.93;;;;;;;;;;5037946;28;20068;-85
2023/01/22 08:23:07;;;;;;;13.17;7.97;;;;;;;;;;5037903;28;20078;-85
2023/01/22 08:25:52;;;;;;;13.67;7.63;;;;;;;;;;5037439;28;20092;-89
2023/01/22 08:28:37;;;;;;;10.87;7.83;;;;;;;;;;5038505;28;20063;-85
2023/01/22 08:31:22;;;;;;;10.93;7.30;;;;;;;;;;5053656;28;20067;-85
2023/01/22 08:34:06;;;;;;;10.87;7.27;;;;;;;;;;5050902;28;20596;-84
2023/01/22 08:36:51;;;;;;;13.47;8.57;;;;;;;;;;5040882;28;20048;-85
2023/01/22 08:39:35;;;;;;;11.80;7.23;;;;;;;;;;5037506;28;20040;-85
2023/01/22 08:42:20;;;;;;;14.27;8.13;;;;;;;;;;5052585;28;20101;-87
2023/01/22 08:45:05;;;;;;;12.40;7.37;;;0.70;99.90;;;;;;5039845;28;20133;-84
2023/01/22 08:47:50;;;;;;;13.90;8.27;;;;;;;;;;5018357;28;20120;-85
2023/01/22 08:50:34;;;;;;;12.00;7.53;;;;;;;;;;5051332;28;20040;-85
2023/01/22 08:53:19;;;;;;;15.73;6.90;;;;;;;;;;5049676;28;20493;-84
2023/01/22 08:56:03;;;;;;;10.83;6.17;;;0.90;99.90;;;;;;5061899;28;20039;-85
2023/01/22 08:58:49;;;;;;;13.53;6.87;;;0.70;99.90;;;;;;5048718;28;20120;-84
2023/01/22 09:01:35;;;;;;;30.20;7.33;;;;;;;;;;5035219;28;20087;-85
2023/01/22 09:04:19;;;;;;;11.70;6.23;;;;;;;;;;5037214;28;20039;-84
2023/01/22 09:07:04;;;;;;;11.50;6.27;;;;;;;;;;5022607;28;20585;-85
2023/01/22 09:09:49;;;;;;;12.23;6.17;;;;;;;;;;5033588;28;20035;-87
2023/01/22 09:12:33;;;;;;;10.23;5.77;;;0.80;99.90;;;;;;5022646;28;20040;-86
2023/01/22 09:15:18;;;;;;;10.53;6.80;;;;;;;;;;5036473;28;20040;-86
2023/01/22 09:18:02;;;;;;;10.40;6.80;;;;;;;;;;5047282;28;20140;-85
2023/01/22 09:20:47;;;;;;;9.30;6.33;;;;;;;;;;5052852;28;20047;-85
2023/01/22 09:23:31;;;;;;;12.03;6.73;;;;;;;;;;5037804;28;20409;-85
2023/01/22 09:26:16;;;;;;;14.67;6.70;;;;;;;;;;5017466;28;20060;-85
2023/01/22 09:29:03;;;;;;;12.23;6.57;;;;;;;;;;5020030;28;20044;-85
2023/01/22 09:31:49;;;;;;;13.47;6.43;;;;;;;;;;5037572;28;20500;-85
2023/01/22 09:34:34;;;;;;;9.70;5.83;;;;;;;;;;5037681;28;20405;-85
2023/01/22 09:37:19;;;;;;;10.80;5.83;;;;;;;;;;5052018;28;20071;-84
2023/01/22 09:40:03;;;;;;;13.53;6.70;;;;;;;;;;5037283;28;20068;-90
2023/01/22 09:42:49;;;;;;;13.73;5.90;;;1.10;99.90;;;;;;5037191;28;20083;-85
2023/01/22 09:45:37;;;;;;;12.13;7.17;;;1.10;99.90;;;;;;5052401;28;20409;-85
2023/01/22 09:48:22;;;;;;;13.03;5.90;;;;;;;;;;5036387;28;20452;-85
2023/01/22 09:51:07;;;;;;;13.37;7.03;;;;;;;;;;5036925;28;20071;-85
2023/01/22 09:53:59;;;;;;;10.50;5.53;;;1.30;99.90;;;;;;5037246;28;20051;-85
2023/01/22 09:56:48;;;;;;;10.23;5.90;;;1.30;99.90;;;;;;5052523;28;20090;-85
2023/01/22 09:59:49;;;;;;;11.67;6.60;;;1.90;99.90;;;;;;5037145;28;20079;-85
2023/01/22 10:02:38;;;;;;;9.83;5.13;;;1.30;99.90;;;;;;5037245;28;20040;-84
2023/01/22 10:05:32;;;;;;;9.77;6.37;;;1.30;99.90;;;;;;5051802;28;20040;-85
2023/01/22 10:08:22;;;;;;;9.17;6.20;;;1.30;99.90;;;;;;5051777;28;20106;-85
2023/01/22 10:11:09;;;;;;;12.20;6.37;;;1.30;99.90;;;;;;5037131;28;20072;-90
2023/01/22 10:13:56;;;;;;;10.03;5.80;;;1.30;99.90;;;;;;5052424;28;20071;-85
2023/01/22 10:16:41;;;;;;;9.47;6.20;;;;;;;;;;5038971;28;20075;-85
2023/01/22 10:19:25;;;;;;;13.40;7.10;;;;;;;;;;5036682;28;20143;-85
2023/01/22 10:22:17;;;;;;;11.93;5.80;;;1.40;99.90;;;;;;5051592;28;20047;-85
2023/01/22 10:25:02;;;;;;;9.60;6.13;;;;;;;;;;5036950;28;20044;-85
2023/01/22 10:27:56;;;;;;;10.93;6.83;;;1.50;99.90;;;;;;5052147;28;20044;-85
2023/01/22 10:30:46;;;;;;;11.77;6.13;;;1.70;99.90;;;;;;5051897;28;20036;-85
2023/01/22 10:33:37;;;;;;;8.20;5.53;;;1.60;99.90;;;;;;5051641;28;20044;-85
2023/01/22 10:36:22;;;;;;;9.77;6.10;;;;;;;;;;5036545;28;20040;-85
2023/01/22 10:39:12;;;;;;;8.63;5.83;;;1.70;99.90;;;;;;5018577;28;20129;-85
2023/01/22 10:42:00;;;;;;;12.37;6.30;;;1.70;99.90;;;;;;5051991;28;20040;-84
2023/01/22 10:44:45;;;;;;;9.40;5.57;;;;;;;;;;5053887;28;20048;-85
2023/01/22 10:47:30;;;;;;;9.53;6.43;;;;;;;;;;5051290;28;20040;-85
2023/01/22 10:50:15;;;;;;;10.00;6.87;;;1.80;99.90;;;;;;5051472;28;20512;-85
2023/01/22 10:53:03;;;;;;;9.07;6.33;;;1.80;99.90;;;;;;5051702;28;20125;-85
2023/01/22 10:55:56;;;;;;;11.87;7.33;;;1.80;99.90;;;;;;5036748;28;20508;-84
2023/01/22 10:58:47;;;;;;;9.15;5.97;;;1.80;99.90;;;;;;5040633;28;20127;-84
2023/01/22 11:01:35;;;;;;;8.73;5.77;;;1.80;99.90;;;;;;5054814;28;20451;-85
2023/01/22 11:04:25;;;;;;;10.30;6.70;;;1.90;99.90;;;;;;5054891;28;20044;-84
2023/01/22 11:07:23;;;;;;;9.47;6.47;;;1.90;99.90;;;;;;5055344;28;20040;-85
2023/01/22 11:10:26;;;;;;;9.60;6.63;;;1.90;99.90;;;;;;5039951;28;20055;-85
2023/01/22 11:13:42;;;;;;;10.77;6.70;;;2.00;99.90;;;;;;5039864;28;20075;-85
2023/01/22 11:16:30;;;;;;;12.17;6.60;;;1.90;99.90;;;;;;5039527;28;20036;-85
2023/01/22 11:19:18;;;;;;;10.50;6.83;;;1.90;99.90;;;;;;5055059;28;20083;-85
2023/01/22 11:22:10;;;;;;;11.00;6.80;;;1.90;99.90;;;;;;5054830;28;20505;-84
2023/01/22 11:24:54;;;;;;;10.93;6.90;;;;;;;;;;5055077;28;20393;-84
2023/01/22 11:28:14;;;;;;;11.67;6.97;;;1.90;99.90;;;;;;5054133;28;20072;-85
2023/01/22 11:31:19;;;;;;;16.03;8.03;;;1.90;99.90;;;;;;5054696;28;20027;-84
2023/01/22 11:34:25;;;;;;;11.00;6.83;;;1.80;99.90;;;;;;5039522;28;20513;-85
2023/01/22 11:37:10;;;;;;;12.57;7.03;;;;;;;;;;5054659;28;20090;-84
2023/01/22 11:40:15;;;;;;;10.63;7.30;;;2.00;99.90;;;;;;5039555;28;20039;-84
2023/01/22 11:43:12;;;;;;;12.53;6.43;;;2.00;99.90;;;;;;5039394;28;20051;-84
2023/01/22 11:46:12;;;;;;;13.43;7.50;;;2.10;99.90;;;;;;5039320;28;20047;-85
2023/01/22 11:49:02;;;;;;;14.33;7.90;;;2.10;99.90;;;;;;5039390;28;20473;-85
2023/01/22 11:52:09;;;;;;;11.63;7.43;;;1.80;99.90;;;;;;5039224;28;20036;-85
2023/01/22 11:55:07;;;;;;;8.90;5.97;;;2.20;99.90;;;;;;5054194;28;20538;-85
2023/01/22 11:58:01;;;;;;;11.60;6.73;;;2.20;99.90;;;;;;5054265;28;20063;-85
2023/01/22 12:01:09;;;;;;;13.43;7.18;;;2.20;99.90;;;;;;5053837;28;20056;-84
2023/01/22 12:04:15;;;;;;;11.70;6.80;;;2.10;99.90;;;;;;5043772;28;20087;-85
2023/01/22 12:07:34;;;;;;;11.27;7.30;;;2.30;99.90;;;;;;5054204;28;20082;-85
2023/01/22 12:10:36;;;;;;;10.80;6.87;;;2.20;99.90;;;;;;5053657;28;20079;-85
2023/01/22 12:13:20;;;;;;;14.00;8.03;;;;;;;;;;5054160;28;20454;-85
2023/01/22 12:16:05;;;;;;;10.97;6.90;;;;;;;;;;5038884;28;20064;-84
2023/01/22 12:19:13;;;;;;;9.93;6.77;;;2.10;99.90;;;;;;5038601;28;20044;-84
2023/01/22 12:22:17;;;;;;;10.43;6.87;;;2.20;99.90;;;;;;5053824;28;20043;-85
2023/01/22 12:25:34;;;;;;;10.95;7.32;;;1.80;99.90;;;;;;5053845;28;20052;-85
2023/01/22 12:28:26;;;;;;;13.90;7.40;;;2.10;99.90;;;;;;5053955;28;20137;-85
2023/01/22 12:31:11;;;;;;;9.27;6.80;;;;;;;;;;5038582;28;20138;-85
2023/01/22 12:33:59;;;;;;;11.53;7.30;;;2.20;99.90;;;;;;5053410;28;20080;-84
2023/01/22 12:36:45;;;;;;;9.50;6.23;;;2.20;99.90;;;;;;5053156;28;20062;-84
2023/01/22 12:39:46;;;;;;;9.90;6.93;;;2.10;99.90;;;;;;5037858;28;20044;-85
2023/01/22 12:42:43;;;;;;;11.07;6.97;;;2.20;99.90;;;;;;5037828;28;20035;-84
2023/01/22 12:45:57;;;;;;;12.67;6.60;;;3.10;99.90;;;;;;5052915;28;20044;-85
2023/01/22 12:48:49;;;;;;;13.13;6.97;;;2.30;99.90;;;;;;5043404;28;20040;-84
2023/01/22 12:51:51;;;;;;;12.50;7.40;;;2.30;99.90;;;;;;5052891;28;20045;-84
2023/01/22 12:54:36;;;;;;;10.47;6.80;;;;;;;;;;5037529;28;20044;-84
2023/01/22 12:57:24;;;;;;;13.13;7.70;;;2.20;99.90;;;;;;5038281;28;20512;-85
2023/01/22 13:00:24;;;;;;;10.60;6.57;;;2.40;99.90;;;;;;5038002;28;20075;-84
2023/01/22 13:03:27;;;;;;;12.37;7.90;;;2.10;99.90;;;;;;5053104;28;20036;-85
2023/01/22 13:06:38;;;;;;;12.33;7.17;;;2.30;99.90;;;;;;5037958;28;20044;-84
2023/01/22 13:09:26;;;;;;;12.30;7.10;;;2.20;99.90;;;;;;5052956;28;20036;-85
2023/01/22 13:12:28;;;;;;;11.20;6.00;;;2.20;99.90;;;;;;5037845;28;20032;-84
2023/01/22 13:15:35;;;;;;;11.23;5.83;;;2.20;99.90;;;;;;5052656;28;20074;-85
2023/01/22 13:18:26;;;;;;;15.87;6.70;;;2.20;99.90;;;;;;5037774;28;20036;-85
2023/01/22 13:21:14;;;;;;;12.83;6.63;;;2.20;99.90;;;;;;5052851;28;20036;-85
2023/01/22 13:24:10;;;;;;;9.23;5.53;;;2.30;99.90;;;;;;5052204;28;20098;-85
2023/01/22 13:26:58;;;;;;;11.83;6.60;;;2.30;99.90;;;;;;5037199;28;20060;-85
2023/01/22 13:29:44;;;;;;;10.00;6.20;;;;;;;;;;5037313;28;20094;-85
2023/01/22 13:32:29;;;;;;;8.80;5.90;;;;;;;;;;5037567;28;20040;-85
2023/01/22 13:35:15;;;;;;;11.00;6.57;;;2.30;99.90;;;;;;5037758;28;20405;-85
2023/01/22 13:38:00;;;;;;;11.23;6.40;;;;;;;;;;5037789;28;20027;-85
2023/01/22 13:40:44;;;;;;;10.33;6.27;;;;;;;;;;5018073;28;20040;-85
2023/01/22 13:43:29;;;;;;;10.67;6.07;;;;;;;;;;5037517;28;20398;-85
2023/01/22 13:46:14;;;;;;;14.50;6.63;;;;;;;;;;5052297;28;20082;-85
2023/01/22 13:49:23;;;;;;;10.43;6.23;;;2.30;99.90;;;;;;5052067;28;20040;-85
2023/01/22 13:52:14;;;;;;;12.73;6.77;;;2.30;99.90;;;;;;5052590;28;20106;-85
2023/01/22 13:55:01;;;;;;;10.37;6.33;;;2.40;99.90;;;;;;5037264;28;20032;-85
2023/01/22 13:57:48;;;;;;;11.43;6.57;;;2.40;99.90;;;;;;5036824;28;20036;-85
2023/01/22 14:00:34;;;;;;;13.13;6.70;;;2.40;99.90;;;;;;5037645;28;20098;-85
2023/01/22 14:03:24;;;;;;;11.20;6.23;;;2.40;99.90;;;;;;5037177;28;20036;-85
2023/01/22 14:06:11;;;;;;;10.77;6.30;;;2.40;99.90;;;;;;5052213;28;20557;-88
2023/01/22 14:08:56;;;;;;;10.37;7.30;;;2.40;99.90;;;;;;5051829;28;20059;-85
2023/01/22 14:11:41;;;;;;;11.77;6.80;;;;;;;;;;5036669;28;20067;-86
2023/01/22 14:14:26;;;;;;;13.03;6.80;;;;;;;;;;5037134;28;20048;-85
2023/01/22 14:17:33;;;;;;;10.70;6.47;;;2.40;99.90;;;;;;5024572;28;20488;-85
2023/01/22 14:20:17;;;;;;;13.77;7.20;;;2.90;99.90;;;;;;5036963;28;20492;-85
2023/01/22 14:23:02;;;;;;;11.53;7.07;;;;;;;;;;5051762;28;20444;-84
2023/01/22 14:25:50;;;;;;;13.00;7.13;;;2.40;99.90;;;;;;5036491;28;20401;-84
2023/01/22 14:28:35;;;;;;;13.50;6.70;;;2.40;99.90;;;;;;5052533;28;20048;-85
2023/01/22 14:31:19;;;;;;;11.63;6.53;;;;;;;;;;5037152;28;20036;-85
2023/01/22 14:34:04;;;;;;;13.03;7.80;;;;;;;;;;5038026;28;20086;-85
2023/01/22 14:36:48;;;;;;;12.20;8.47;;;;;;;;;;5040458;28;20138;-85
2023/01/22 14:39:34;;;;;;;14.33;7.70;;;2.50;99.90;;;;;;5026061;28;20071;-85
2023/01/22 14:42:19;;;;;;;13.27;7.50;;;;;;;;;;5055988;28;20036;-85
2023/01/22 14:45:03;;;;;;;15.63;7.57;;;2.50;99.90;;;;;;5055265;28;20052;-85
2023/01/22 14:47:50;;;;;;;16.00;7.67;;;2.50;99.90;;;;;;5040039;28;20083;-85
2023/01/22 14:50:35;;;;;;;15.17;7.53;;;;;;;;;;5055571;28;20087;-85
2023/01/22 14:53:19;;;;;;;11.50;7.43;;;;;;;;;;5055668;28;20035;-85
2023/01/22 14:56:03;;;;;;;13.00;6.80;;;2.70;99.90;;;;;;5039941;28;20043;-85
2023/01/22 14:58:48;;;;;;;11.00;6.83;;;;;;;;;;5055036;28;20411;-86
2023/01/22 15:01:33;;;;;;;13.80;6.97;;;;;;;;;;5040242;28;20063;-85
2023/01/22 15:04:17;;;;;;;13.53;7.40;;;;;;;;;;5055257;28;20086;-85
2023/01/22 15:07:02;;;;;;;14.13;7.00;;;;;;;;;;5054869;28;20120;-85
2023/01/22 15:09:46;;;;;;;12.43;6.80;;;;;;;;;;5054776;28;20036;-86
2023/01/22 15:12:31;;;;;;;13.53;8.57;;;;;;;;;;5055287;28;20044;-86
2023/01/22 15:15:17;;;;;;;12.60;6.43;;;;;;;;;;5054988;28;20158;-85
2023/01/22 15:18:01;;;;;;;16.30;7.70;;;;;;;;;;5054598;28;20055;-85
2023/01/22 15:20:46;;;;;;;12.57;7.30;;;;;;;;;;5024320;28;20032;-91
2023/01/22 15:23:32;;;;;;;14.80;6.87;;;2.50;99.90;;;;;;5055279;28;20051;-85
2023/01/22 15:26:30;;;;;;;12.33;7.10;;;2.40;99.90;;;;;;5054912;28;20103;-85
2023/01/22 15:29:15;;;;;;;14.73;6.83;;;;;;;;;;5054730;28;20054;-85
2023/01/22 15:31:59;;;;;;;15.17;7.27;;;;;;;;;;5039445;28;20094;-85
2023/01/22 15:34:44;;;;;;;13.40;7.03;;;;;;;;;;5039704;28;20048;-85
2023/01/22 15:37:28;;;;;;;17.20;8.23;;;;;;;;;;5054730;28;20091;-85
2023/01/22 15:40:13;;;;;;;17.00;7.83;;;2.30;99.90;;;;;;5039284;28;20499;-85
2023/01/22 15:42:58;;;;;;;15.70;7.97;;;;;;;;;;5054143;28;20389;-85
2023/01/22 15:45:43;;;;;;;13.83;7.53;;;;;;;;;;5053698;28;20103;-85
2023/01/22 15:48:27;;;;;;;16.77;8.37;;;;;;;;;;5054522;28;20100;-85
2023/01/22 15:51:13;;;;;;;15.77;9.07;;;2.50;99.90;;;;;;5022080;28;20143;-85
2023/01/22 15:53:59;;;;;;;22.57;8.03;;;2.50;99.90;;;;;;5039114;28;20163;-85
2023/01/22 15:56:44;;;;;;;16.20;7.77;;;;;;;;;;5039321;28;20090;-85